Time;durP1;ratioP1;P1;durP2;ratioP2;P2;SDS_P1;SDS_P2;PMS_P1;PMS_P2;Temp;Humidity;BMP_temperature;BMP_pressure;BME280_temperature;BME280_humidity;BME280_pressure;Samples;Min_cycle;Max_cycle;Signal;HPM_P1;HPM_P2
2023/10/16 00:02:22;;;;;;;;;;;;;;;16.75;60.12;98819.81;5032266;28;19917;-79
2023/10/16 00:04:48;;;;;;;;;;;;;;;16.75;60.11;98805.69;5024558;28;19982;-79
2023/10/16 00:07:14;;;;;;;;;;;;;;;16.72;59.91;98825.44;5028969;28;19917;-79
2023/10/16 00:09:40;;;;;;;;;;;;;;;16.67;60.14;98826.59;5012993;28;19948;-79
2023/10/16 00:12:05;;;;;;;;;;;;;;;16.57;59.96;98830.97;5011340;28;19925;-79
2023/10/16 00:14:31;;;;;;;;;;;;;;;16.49;60.07;98843.41;5011550;28;19913;-79
2023/10/16 00:16:56;;;;;;;;;;;;;;;16.40;60.07;98838.91;5024346;28;19917;-79
2023/10/16 00:19:24;;;;;;;;;;;;;;;16.26;59.73;98842.41;5029955;28;19931;-78
2023/10/16 00:21:52;;;;;;;;;;;;;;;16.18;60.06;98860.47;5031913;28;20008;-78
2023/10/16 00:24:17;;;;;;;;;;;;;;;16.12;59.78;98850.75;5030071;28;19917;-78
2023/10/16 00:26:49;;;;;;;;;;;;;;;16.08;59.74;98850.72;5030632;28;20012;-78
2023/10/16 00:29:24;;;;;;;;;;;;;;;16.06;59.72;98872.84;5030952;28;19971;-78
2023/10/16 00:31:51;;;;;;;;;;;;;;;16.11;59.49;98880.97;5029678;28;19928;-77
2023/10/16 00:34:20;;;;;;;;;;;;;;;16.08;59.18;98890.19;5032236;28;19917;-77
2023/10/16 00:36:46;;;;;;;;;;;;;;;16.11;59.36;98909.16;5029910;28;19975;-78
2023/10/16 00:39:14;;;;;;;;;;;;;;;16.04;59.06;98902.63;5031300;28;19952;-78
2023/10/16 00:41:40;;;;;;;;;;;;;;;16.04;59.06;98922.38;5028504;28;19921;-78
2023/10/16 00:44:05;;;;;;;;;;;;;;;16.02;58.87;98925.59;5011018;28;20380;-78
2023/10/16 00:46:37;;;;;;;;;;;;;;;16.00;58.50;98922.34;5012240;28;20403;-78
2023/10/16 00:49:06;;;;;;;;;;;;;;;15.88;58.67;98931.03;5012122;28;20377;-78
2023/10/16 00:51:38;;;;;;;;;;;;;;;15.84;58.78;98931.81;5010799;28;19925;-78
2023/10/16 00:54:05;;;;;;;;;;;;;;;15.82;58.81;98930.56;5026689;28;19917;-78
2023/10/16 00:56:30;;;;;;;;;;;;;;;15.85;58.13;98932.59;5029328;28;20007;-78
2023/10/16 00:58:56;;;;;;;;;;;;;;;15.81;58.51;98932.59;5012083;28;19956;-78
2023/10/16 01:01:22;;;;;;;;;;;;;;;15.77;58.44;98942.19;5027009;28;20289;-78
2023/10/16 01:03:48;;;;;;;;;;;;;;;15.65;58.68;98935.59;5010798;28;19918;-78
2023/10/16 01:06:19;;;;;;;;;;;;;;;15.65;58.53;98944.06;5012071;28;20016;-78
2023/10/16 01:08:49;;;;;;;;;;;;;;;15.63;58.58;98954.06;5011987;28;19964;-78
2023/10/16 01:11:15;;;;;;;;;;;;;;;15.58;58.20;98950.41;5010635;28;19971;-78
2023/10/16 01:13:47;;;;;;;;;;;;;;;15.55;58.02;98962.41;5010676;28;19922;-77
2023/10/16 01:16:12;;;;;;;;;;;;;;;15.57;57.81;98957.25;5011931;28;19936;-78
2023/10/16 01:18:38;;;;;;;;;;;;;;;15.53;57.51;98962.00;5010714;28;20373;-78
2023/10/16 01:21:05;;;;;;;;;;;;;;;15.43;57.66;98952.22;5023793;28;19962;-78
2023/10/16 01:23:31;;;;;;;;;;;;;;;15.33;57.37;98971.78;5031533;28;20494;-77
2023/10/16 01:25:58;;;;;;;;;;;;;;;15.30;57.45;98962.88;5029461;28;19921;-77
2023/10/16 01:28:24;;;;;;;;;;;;;;;15.29;56.74;98975.34;5030275;28;19917;-77
2023/10/16 01:30:49;;;;;;;;;;;;;;;15.35;56.67;98989.91;5031491;28;19924;-77
2023/10/16 01:33:16;;;;;;;;;;;;;;;15.29;57.02;98997.88;5016554;28;19920;-77
2023/10/16 01:35:43;;;;;;;;;;;;;;;15.34;56.60;98993.13;5010404;28;19917;-77
2023/10/16 01:38:18;;;;;;;;;;;;;;;15.38;55.81;99008.06;5010428;28;19914;-77
2023/10/16 01:41:32;;;;;;;;;;;;;;;15.39;55.77;99004.06;5013203;28;19917;-77
2023/10/16 01:43:39;;;;;;;;;;;;;;;15.42;55.14;99006.13;5013438;28;19917;-77
2023/10/16 01:46:08;;;;;;;;;;;;;;;15.39;54.86;99015.34;5030086;28;20319;-77
2023/10/16 01:48:34;;;;;;;;;;;;;;;15.40;55.13;99014.97;5018874;28;19926;-77
2023/10/16 01:51:01;;;;;;;;;;;;;;;15.37;55.29;99021.34;5011829;28;19952;-78
2023/10/16 01:53:32;;;;;;;;;;;;;;;15.39;55.53;99026.59;5015281;28;20412;-78
2023/10/16 01:55:57;;;;;;;;;;;;;;;15.36;55.74;99013.28;5021340;28;19917;-77
2023/10/16 01:58:24;;;;;;;;;;;;;;;15.28;55.86;99015.97;5034969;28;19920;-77
2023/10/16 02:00:51;;;;;;;;;;;;;;;15.27;55.81;99022.00;5034848;28;19925;-77
2023/10/16 02:03:17;;;;;;;;;;;;;;;15.19;56.04;99017.44;5034793;28;19921;-78
2023/10/16 02:05:46;;;;;;;;;;;;;;;15.12;55.57;99026.59;5032957;28;19958;-77
2023/10/16 02:08:12;;;;;;;;;;;;;;;15.04;55.40;99024.84;5030202;28;20002;-78
2023/10/16 02:10:38;;;;;;;;;;;;;;;15.05;55.51;99029.28;5034098;28;19917;-77
2023/10/16 02:13:03;;;;;;;;;;;;;;;15.15;54.64;99031.47;5033442;28;19924;-77
2023/10/16 02:15:29;;;;;;;;;;;;;;;15.08;54.74;99043.41;5033484;28;19952;-78
2023/10/16 02:17:54;;;;;;;;;;;;;;;15.07;54.89;99038.16;5034691;28;19917;-78
2023/10/16 02:20:26;;;;;;;;;;;;;;;15.04;55.08;99033.28;5034557;28;19917;-78
2023/10/16 02:22:52;;;;;;;;;;;;;;;14.98;54.23;99046.84;5029812;28;19918;-77
2023/10/16 02:25:18;;;;;;;;;;;;;;;15.00;53.83;99050.94;5014883;28;19913;-78
2023/10/16 02:27:43;;;;;;;;;;;;;;;15.11;53.69;99048.28;5013565;28;19913;-77
2023/10/16 02:32:53;;;;;;;;;;;;;;;15.00;53.28;99059.38;5033104;28;19925;-77
2023/10/16 02:35:19;;;;;;;;;;;;;;;15.02;53.44;99075.88;5033279;28;19921;-77
2023/10/16 02:37:44;;;;;;;;;;;;;;;15.08;53.01;99079.22;5022748;28;19968;-77
2023/10/16 02:40:10;;;;;;;;;;;;;;;14.97;51.75;99091.13;5030180;28;20360;-77
2023/10/16 02:42:38;;;;;;;;;;;;;;;14.90;51.39;99099.41;5013091;28;19917;-77
2023/10/16 02:45:04;;;;;;;;;;;;;;;14.69;51.59;99100.59;5019151;28;19921;-77
2023/10/16 02:47:30;;;;;;;;;;;;;;;14.67;52.10;99111.41;5027685;28;19921;-78
2023/10/16 02:49:56;;;;;;;;;;;;;;;14.60;52.69;99122.56;5012758;28;19920;-77
2023/10/16 02:52:21;;;;;;;;;;;;;;;14.51;53.47;99138.84;5014085;28;19918;-77
2023/10/16 02:54:47;;;;;;;;;;;;;;;14.32;54.17;99123.56;5021288;28;19917;-76
2023/10/16 02:57:12;;;;;;;;;;;;;;;14.30;53.98;99134.38;5032494;28;20004;-76
2023/10/16 02:59:38;;;;;;;;;;;;;;;14.18;54.87;99138.16;5029345;28;19917;-76
2023/10/16 03:02:05;;;;;;;;;;;;;;;14.09;55.28;99157.22;5032232;28;19923;-76
2023/10/16 03:04:33;;;;;;;;;;;;;;;14.00;55.35;99149.00;5032669;28;20003;-76
2023/10/16 03:06:59;;;;;;;;;;;;;;;14.03;55.08;99154.69;5032417;28;19920;-76
2023/10/16 03:09:28;;;;;;;;;;;;;;;14.09;54.63;99151.59;5023725;28;19944;-76
2023/10/16 03:12:08;;;;;;;;;;;;;;;14.02;54.88;99153.03;5032089;28;19921;-76
2023/10/16 03:14:48;;;;;;;;;;;;;;;13.97;55.10;99152.50;5030917;28;20451;-77
2023/10/16 03:17:21;;;;;;;;;;;;;;;13.78;56.09;99176.59;5016770;28;19968;-76
2023/10/16 03:19:48;;;;;;;;;;;;;;;13.59;57.00;99180.13;5024427;28;19945;-76
2023/10/16 03:22:14;;;;;;;;;;;;;;;13.58;57.31;99172.88;5017139;28;20010;-76
2023/10/16 03:24:39;;;;;;;;;;;;;;;13.48;57.50;99185.47;5030549;28;19920;-75
2023/10/16 03:27:08;;;;;;;;;;;;;;;13.41;58.20;99204.94;5012050;28;20004;-76
2023/10/16 03:29:34;;;;;;;;;;;;;;;13.25;59.01;99200.09;5029366;28;20380;-76
2023/10/16 03:31:59;;;;;;;;;;;;;;;13.27;58.60;99223.03;5026196;28;19925;-76
2023/10/16 03:34:24;;;;;;;;;;;;;;;13.15;59.23;99209.84;5014726;28;19925;-76
2023/10/16 03:36:54;;;;;;;;;;;;;;;13.03;59.52;99216.38;5028410;28;19921;-76
2023/10/16 03:39:19;;;;;;;;;;;;;;;12.99;60.16;99218.22;5011801;28;19918;-76
2023/10/16 03:41:45;;;;;;;;;;;;;;;12.98;60.29;99218.59;5029935;28;20348;-75
2023/10/16 03:44:18;;;;;;;;;;;;;;;12.99;60.49;99221.03;5028192;28;19924;-76
2023/10/16 03:46:44;;;;;;;;;;;;;;;12.87;60.69;99240.75;5032059;28;20017;-76
2023/10/16 03:49:12;;;;;;;;;;;;;;;12.90;60.73;99228.78;5025375;28;19936;-75
2023/10/16 03:51:38;;;;;;;;;;;;;;;12.86;60.88;99219.47;5027487;28;20408;-75
2023/10/16 03:54:03;;;;;;;;;;;;;;;12.83;60.76;99226.59;5023163;28;19917;-75
2023/10/16 03:56:30;;;;;;;;;;;;;;;12.78;60.96;99240.88;5026802;28;19939;-74
2023/10/16 03:58:57;;;;;;;;;;;;;;;12.62;60.57;99219.19;5026680;28;20339;-76
2023/10/16 04:01:28;;;;;;;;;;;;;;;12.70;60.94;99241.84;5030685;28;19926;-75
2023/10/16 04:03:57;;;;;;;;;;;;;;;12.70;60.64;99231.44;5030587;28;19917;-76
2023/10/16 04:06:23;;;;;;;;;;;;;;;12.72;60.64;99234.72;5017654;28;19921;-76
2023/10/16 04:08:53;;;;;;;;;;;;;;;12.65;60.84;99237.28;5027945;28;20311;-75
2023/10/16 04:11:18;;;;;;;;;;;;;;;12.63;61.13;99234.03;5012576;28;20402;-75
2023/10/16 04:13:52;;;;;;;;;;;;;;;12.68;60.88;99259.06;5029071;28;20007;-75
2023/10/16 04:16:42;;;;;;;;;;;;;;;12.69;60.66;99260.69;5030317;28;20320;-74
2023/10/16 04:21:45;;;;;;;;;;;;;;;12.76;60.24;99251.66;5023425;28;19917;-76
2023/10/16 04:27:22;;;;;;;;;;;;;;;12.88;59.46;99271.28;5032220;28;20007;-77
2023/10/16 04:29:46;;;;;;;;;;;;;;;12.89;58.93;99291.72;5024661;28;20050;-76
2023/10/16 04:35:28;;;;;;;;;;;;;;;12.89;58.05;99292.53;5031399;28;19913;-77
2023/10/16 04:37:37;;;;;;;;;;;;;;;12.87;57.81;99280.03;5031361;28;20388;-75
2023/10/16 04:47:48;;;;;;;;;;;;;;;12.83;56.52;99308.00;5033070;28;19944;-77
2023/10/16 04:50:15;;;;;;;;;;;;;;;12.84;56.51;99298.41;5030051;28;19917;-77
2023/10/16 05:17:21;;;;;;;;;;;;;;;13.11;52.87;99362.56;5033069;28;19924;-76
2023/10/16 05:19:53;;;;;;;;;;;;;;;13.08;53.09;99346.44;5016898;28;19939;-77
2023/10/16 06:14:11;;;;;;;;;;;;;;;12.80;51.70;99502.38;5025866;28;19923;-75
2023/10/16 06:16:38;;;;;;;;;;;;;;;12.82;50.78;99510.44;5016037;28;19917;-74
2023/10/16 06:19:07;;;;;;;;;;;;;;;12.84;49.96;99511.72;5025792;28;20398;-75
2023/10/16 06:21:33;;;;;;;;;;;;;;;12.86;50.33;99515.00;5014821;28;20373;-71
2023/10/16 06:23:59;;;;;;;;;;;;;;;12.88;50.02;99528.69;5023752;28;19925;-71
2023/10/16 06:26:27;;;;;;;;;;;;;;;12.92;50.74;99521.22;5032738;28;20372;-71
2023/10/16 06:28:52;;;;;;;;;;;;;;;12.88;49.70;99537.94;5034341;28;20351;-70
2023/10/16 06:31:24;;;;;;;;;;;;;;;12.92;49.94;99535.25;5032773;28;19986;-72
2023/10/16 06:33:53;;;;;;;;;;;;;;;12.99;49.35;99540.28;5025026;28;19971;-72
2023/10/16 06:36:18;;;;;;;;;;;;;;;12.94;48.21;99541.34;5031715;28;20012;-72
2023/10/16 06:38:44;;;;;;;;;;;;;;;12.94;49.19;99543.31;5020092;28;19967;-73
2023/10/16 06:41:09;;;;;;;;;;;;;;;12.95;48.38;99554.19;5029503;28;19917;-75
2023/10/16 06:43:35;;;;;;;;;;;;;;;12.96;47.75;99564.25;5029767;28;19925;-74
2023/10/16 06:46:09;;;;;;;;;;;;;;;13.00;47.73;99584.84;5021557;28;20328;-74
2023/10/16 06:48:37;;;;;;;;;;;;;;;13.02;47.20;99579.69;5022884;28;19928;-72
2023/10/16 06:51:04;;;;;;;;;;;;;;;13.04;46.54;99590.59;5029621;28;19975;-74
2023/10/16 06:53:30;;;;;;;;;;;;;;;13.04;46.48;99588.59;5026697;28;19978;-76
2023/10/16 06:55:55;;;;;;;;;;;;;;;13.08;46.72;99583.09;5023788;28;20007;-74
2023/10/16 06:58:21;;;;;;;;;;;;;;;13.12;47.36;99584.06;5034500;28;20416;-78
2023/10/16 07:00:47;;;;;;;;;;;;;;;13.05;46.10;99587.44;5030363;28;20016;-75
2023/10/16 07:03:12;;;;;;;;;;;;;;;13.06;45.19;99586.28;5029307;28;19952;-76
2023/10/16 07:05:44;;;;;;;;;;;;;;;13.04;45.82;99591.41;5025017;28;19917;-76
2023/10/16 07:08:19;;;;;;;;;;;;;;;13.08;44.35;99604.75;5028691;28;20464;-76
2023/10/16 07:10:49;;;;;;;;;;;;;;;13.02;43.83;99601.34;5027815;28;20012;-76
2023/10/16 07:13:27;;;;;;;;;;;;;;;13.02;43.58;99604.97;5031869;28;19999;-76
2023/10/16 07:16:10;;;;;;;;;;;;;;;13.06;43.09;99602.28;5031544;28;20403;-76
2023/10/16 07:18:35;;;;;;;;;;;;;;;13.11;43.13;99592.81;5030937;28;19917;-76
2023/10/16 07:23:34;;;;;;;;;;;;;;;13.19;42.55;99594.69;5027442;28;20355;-77
2023/10/16 07:25:59;;;;;;;;;;;;;;;13.13;42.58;99602.53;5030928;28;19917;-77
2023/10/16 07:28:26;;;;;;;;;;;;;;;13.16;42.77;99606.66;5031668;28;20426;-76
2023/10/16 07:30:52;;;;;;;;;;;;;;;13.23;42.79;99609.69;5031140;28;19921;-76
2023/10/16 07:33:20;;;;;;;;;;;;;;;13.28;42.41;99611.44;5030922;28;19925;-76
2023/10/16 07:35:47;;;;;;;;;;;;;;;13.27;41.59;99613.44;5031855;28;20367;-76
2023/10/16 07:38:21;;;;;;;;;;;;;;;13.24;40.90;99630.97;5032791;28;19913;-77
2023/10/16 07:40:53;;;;;;;;;;;;;;;13.22;40.01;99621.28;5020688;28;19918;-76
2023/10/16 07:43:28;;;;;;;;;;;;;;;13.18;39.95;99621.97;5024843;28;19924;-76
2023/10/16 07:48:44;;;;;;;;;;;;;;;13.29;38.44;99639.19;5026317;28;20384;-76
2023/10/16 07:51:15;;;;;;;;;;;;;;;13.44;38.15;99646.13;5023673;28;19925;-76
2023/10/16 07:53:40;;;;;;;;;;;;;;;13.42;38.17;99651.25;5021555;28;19921;-77
2023/10/16 07:58:51;;;;;;;;;;;;;;;13.59;37.71;99649.41;5017134;28;19917;-76
2023/10/16 08:01:17;;;;;;;;;;;;;;;13.65;37.41;99645.19;5020624;28;19921;-74
2023/10/16 08:03:45;;;;;;;;;;;;;;;13.69;36.86;99654.56;5024092;28;20358;-73
2023/10/16 08:06:17;;;;;;;;;;;;;;;13.63;37.19;99650.34;5015895;28;19928;-75
2023/10/16 08:09:29;;;;;;;;;;;;;;;13.68;36.75;99644.47;5025679;28;19920;-74
2023/10/16 08:11:42;;;;;;;;;;;;;;;13.76;36.58;99637.13;5022145;28;19932;-73
2023/10/16 08:14:08;;;;;;;;;;;;;;;13.76;36.96;99639.94;5019384;28;19921;-75
2023/10/16 08:16:33;;;;;;;;;;;;;;;13.91;36.47;99646.81;5023240;28;19917;-77
2023/10/16 08:18:59;;;;;;;;;;;;;;;13.92;35.96;99656.06;5029569;28;19925;-76
2023/10/16 08:21:24;;;;;;;;;;;;;;;13.96;36.08;99645.75;5026059;28;19923;-75
2023/10/16 08:23:50;;;;;;;;;;;;;;;14.03;35.71;99634.72;5020594;28;20400;-76
2023/10/16 08:26:27;;;;;;;;;;;;;;;14.08;35.38;99651.34;5027356;28;20380;-76
2023/10/16 08:28:54;;;;;;;;;;;;;;;13.95;35.63;99652.56;5020102;28;20305;-76
2023/10/16 08:31:25;;;;;;;;;;;;;;;14.28;35.43;99654.38;5027683;28;19982;-76
2023/10/16 08:33:59;;;;;;;;;;;;;;;14.29;35.11;99656.81;5024454;28;19921;-75
2023/10/16 08:36:26;;;;;;;;;;;;;;;14.40;34.46;99662.78;5023627;28;19948;-76
2023/10/16 08:38:55;;;;;;;;;;;;;;;14.28;34.24;99657.97;5032523;28;19924;-76
2023/10/16 08:41:42;;;;;;;;;;;;;;;14.40;33.31;99676.84;5028363;28;19920;-76
2023/10/16 08:44:08;;;;;;;;;;;;;;;14.32;33.94;99673.00;5029711;28;19917;-76
2023/10/16 08:46:35;;;;;;;;;;;;;;;14.42;33.44;99674.50;5018964;28;19971;-71
2023/10/16 08:49:03;;;;;;;;;;;;;;;14.55;33.56;99680.91;5022808;28;20418;-76
2023/10/16 08:51:29;;;;;;;;;;;;;;;14.47;33.47;99673.41;5027890;28;19964;-75
2023/10/16 08:53:59;;;;;;;;;;;;;;;14.65;33.15;99659.88;5022065;28;19957;-75
2023/10/16 08:56:24;;;;;;;;;;;;;;;14.81;33.17;99667.56;5020749;28;19921;-75
2023/10/16 08:58:49;;;;;;;;;;;;;;;14.91;32.68;99674.69;5020863;28;19983;-71
2023/10/16 09:01:16;;;;;;;;;;;;;;;14.79;33.04;99664.28;5010561;28;19927;-73
2023/10/16 09:03:49;;;;;;;;;;;;;;;15.04;32.66;99655.72;5014294;28;19921;-73
2023/10/16 09:06:24;;;;;;;;;;;;;;;15.12;32.29;99666.00;5027788;28;20370;-74
2023/10/16 09:08:49;;;;;;;;;;;;;;;15.40;32.09;99656.66;5011167;28;19922;-75
2023/10/16 09:11:16;;;;;;;;;;;;;;;15.33;32.37;99673.41;5014928;28;19917;-74
2023/10/16 09:13:45;;;;;;;;;;;;;;;15.32;32.79;99668.91;5011739;28;20392;-74
2023/10/16 09:16:15;;;;;;;;;;;;;;;16.06;31.76;99665.53;5016780;28;19932;-76
2023/10/16 09:18:40;;;;;;;;;;;;;;;16.26;31.30;99665.56;5021828;28;20374;-76
2023/10/16 09:21:22;;;;;;;;;;;;;;;16.21;31.14;99665.88;5012297;28;19937;-74
2023/10/16 09:23:58;;;;;;;;;;;;;;;16.11;31.25;99658.81;5013512;28;19925;-74
2023/10/16 09:26:25;;;;;;;;;;;;;;;16.07;30.96;99663.53;5028579;28;19917;-74
2023/10/16 09:28:54;;;;;;;;;;;;;;;15.69;30.76;99655.38;5022354;28;19921;-72
2023/10/16 09:31:20;;;;;;;;;;;;;;;15.71;30.27;99663.47;5030551;28;20392;-74
2023/10/16 09:33:48;;;;;;;;;;;;;;;15.98;31.19;99658.09;5029803;28;20442;-74
2023/10/16 09:36:17;;;;;;;;;;;;;;;16.11;30.77;99645.50;5019278;28;19921;-74
2023/10/16 09:38:44;;;;;;;;;;;;;;;16.34;30.21;99660.88;5022391;28;19923;-74
2023/10/16 09:44:22;;;;;;;;;;;;;;;16.30;29.63;99641.09;5001614;28;20009;-74
2023/10/16 09:49:13;;;;;;;;;;;;;;;16.58;29.86;99620.28;5021530;28;20012;-74
2023/10/16 09:51:42;;;;;;;;;;;;;;;16.43;28.36;99633.28;5013169;28;20501;-74
2023/10/16 09:54:08;;;;;;;;;;;;;;;16.68;28.57;99622.50;5026178;28;19913;-74
2023/10/16 09:56:39;;;;;;;;;;;;;;;16.77;27.84;99608.13;5029584;28;20441;-74
2023/10/16 09:59:26;;;;;;;;;;;;;;;17.21;27.70;99609.78;5028944;28;20384;-74
2023/10/16 10:01:52;;;;;;;;;;;;;;;17.14;26.97;99604.00;5027252;28;20383;-75
2023/10/16 10:04:19;;;;;;;;;;;;;;;17.22;27.02;99599.28;5030451;28;19917;-75
2023/10/16 10:06:46;;;;;;;;;;;;;;;17.46;27.15;99595.25;5029134;28;20335;-75
2023/10/16 10:11:58;;;;;;;;;;;;;;;17.40;26.62;99586.25;5020898;28;19928;-75
2023/10/16 10:14:39;;;;;;;;;;;;;;;17.64;24.89;99591.91;5031522;28;19918;-74
2023/10/16 10:17:09;;;;;;;;;;;;;;;17.51;23.75;99583.63;5038545;28;19948;-74
2023/10/16 10:19:39;;;;;;;;;;;;;;;17.47;24.56;99582.72;5021846;28;20016;-74
2023/10/16 10:22:27;;;;;;;;;;;;;;;17.29;23.75;99581.63;5032456;28;19917;-74
2023/10/16 10:25:17;;;;;;;;;;;;;;;17.75;24.29;99586.38;5030668;28;19917;-74
2023/10/16 10:27:43;;;;;;;;;;;;;;;17.70;24.26;99590.34;5016406;28;19917;-74
2023/10/16 10:30:17;;;;;;;;;;;;;;;17.90;24.60;99593.06;5029474;28;20008;-74
2023/10/16 10:32:43;;;;;;;;;;;;;;;17.95;24.36;99581.41;5014333;28;20408;-74
2023/10/16 10:35:38;;;;;;;;;;;;;;;18.00;23.33;99591.59;5022112;28;20030;-75
2023/10/16 10:38:20;;;;;;;;;;;;;;;18.12;24.87;99599.06;5032676;28;19913;-74
2023/10/16 10:41:03;;;;;;;;;;;;;;;18.29;23.43;99587.16;5033846;28;19913;-74
2023/10/16 10:43:48;;;;;;;;;;;;;;;17.79;23.19;99584.41;5032194;28;19932;-74
2023/10/16 10:46:24;;;;;;;;;;;;;;;18.14;23.87;99591.81;5026598;28;19917;-75
2023/10/16 10:48:50;;;;;;;;;;;;;;;18.11;24.39;99581.25;5032684;28;19969;-74
2023/10/16 10:51:16;;;;;;;;;;;;;;;18.11;22.86;99601.06;5026917;28;19917;-74
2023/10/16 10:53:54;;;;;;;;;;;;;;;18.21;21.62;99586.25;5022149;28;19913;-74
2023/10/16 10:56:22;;;;;;;;;;;;;;;18.38;22.31;99584.84;5029820;28;20012;-75
2023/10/16 10:58:48;;;;;;;;;;;;;;;18.27;21.34;99589.56;5031560;28;20315;-73
2023/10/16 11:01:18;;;;;;;;;;;;;;;17.98;21.89;99588.34;5029191;28;19917;-76
2023/10/16 11:03:45;;;;;;;;;;;;;;;18.31;21.48;99581.13;5017904;28;19939;-75
2023/10/16 11:06:39;;;;;;;;;;;;;;;17.90;21.50;99588.22;5032402;28;19944;-77
2023/10/16 11:09:12;;;;;;;;;;;;;;;18.30;21.39;99573.84;5029075;28;19983;-73
2023/10/16 11:11:39;;;;;;;;;;;;;;;18.38;21.59;99564.19;5030884;28;19975;-74
2023/10/16 11:14:07;;;;;;;;;;;;;;;18.43;21.31;99558.22;5032181;28;19917;-75
2023/10/16 11:16:32;;;;;;;;;;;;;;;18.51;21.29;99561.94;5033336;28;20355;-77
2023/10/16 11:18:58;;;;;;;;;;;;;;;18.54;20.76;99566.81;5028267;28;19917;-69
2023/10/16 11:21:25;;;;;;;;;;;;;;;18.53;20.76;99568.03;5025997;28;19918;-74
2023/10/16 11:23:55;;;;;;;;;;;;;;;18.36;20.72;99570.28;5026232;28;19918;-73
2023/10/16 11:26:22;;;;;;;;;;;;;;;18.42;21.21;99564.25;5025159;28;20395;-74
2023/10/16 11:28:51;;;;;;;;;;;;;;;18.36;20.67;99563.78;5031982;28;20530;-74
2023/10/16 11:31:18;;;;;;;;;;;;;;;18.20;20.46;99564.81;5029601;28;20032;-74
2023/10/16 11:33:44;;;;;;;;;;;;;;;18.40;20.40;99558.97;5027293;28;19921;-74
2023/10/16 11:36:11;;;;;;;;;;;;;;;18.24;20.42;99554.34;5016894;28;19917;-74
2023/10/16 11:38:37;;;;;;;;;;;;;;;18.77;20.32;99566.69;5024460;28;19921;-74
2023/10/16 11:44:01;;;;;;;;;;;;;;;18.89;20.22;99565.56;5012893;28;19975;-74
2023/10/16 11:46:39;;;;;;;;;;;;;;;18.73;20.62;99570.69;5032507;28;19921;-75
2023/10/16 11:51:48;;;;;;;;;;;;;;;18.66;20.26;99572.22;5024639;28;19928;-80
2023/10/16 11:54:20;;;;;;;;;;;;;;;18.62;20.48;99571.38;5028997;28;19944;-81
2023/10/16 11:56:51;;;;;;;;;;;;;;;18.41;20.60;99583.28;5026779;28;20422;-80
2023/10/16 11:59:19;;;;;;;;;;;;;;;18.26;20.13;99579.44;5016735;28;20382;-81
2023/10/16 12:01:44;;;;;;;;;;;;;;;18.37;20.34;99586.06;5021918;28;19979;-80
2023/10/16 12:04:10;;;;;;;;;;;;;;;18.42;19.93;99578.41;5017872;28;19960;-80
2023/10/16 12:06:36;;;;;;;;;;;;;;;18.29;19.77;99586.34;5024700;28;19917;-81
2023/10/16 12:09:02;;;;;;;;;;;;;;;18.61;19.77;99585.91;5021934;28;19975;-77
2023/10/16 12:11:28;;;;;;;;;;;;;;;18.74;19.27;99583.63;5023933;28;20379;-76
2023/10/16 12:13:54;;;;;;;;;;;;;;;18.50;19.72;99586.59;5024956;28;20030;-75
2023/10/16 12:16:24;;;;;;;;;;;;;;;18.37;19.68;99583.22;5024800;28;19917;-76
2023/10/16 12:18:51;;;;;;;;;;;;;;;18.64;19.85;99585.13;5024179;28;19918;-73
2023/10/16 12:21:17;;;;;;;;;;;;;;;18.62;20.47;99588.38;5023995;28;20008;-75
2023/10/16 12:23:42;;;;;;;;;;;;;;;18.75;20.17;99588.09;5022304;28;20458;-75
2023/10/16 12:26:07;;;;;;;;;;;;;;;18.89;19.69;99590.28;5028993;28;19921;-74
2023/10/16 12:28:33;;;;;;;;;;;;;;;18.58;20.20;99587.53;5028533;28;19988;-76
2023/10/16 12:30:59;;;;;;;;;;;;;;;18.90;19.90;99586.25;5023658;28;19964;-75
2023/10/16 12:33:27;;;;;;;;;;;;;;;18.75;19.73;99585.25;5029506;28;19921;-76
2023/10/16 12:35:56;;;;;;;;;;;;;;;18.74;19.80;99581.59;5017721;28;19936;-70
2023/10/16 12:38:23;;;;;;;;;;;;;;;18.77;19.63;99585.69;5021259;28;19978;-80
2023/10/16 12:40:52;;;;;;;;;;;;;;;18.51;19.96;99576.09;5022623;28;20011;-74
2023/10/16 12:43:19;;;;;;;;;;;;;;;18.67;20.06;99576.69;5015585;28;19984;-76
2023/10/16 12:45:44;;;;;;;;;;;;;;;18.65;19.81;99578.28;5031778;28;19951;-75
2023/10/16 12:48:10;;;;;;;;;;;;;;;18.58;18.71;99579.03;5025252;28;19932;-76
2023/10/16 12:50:35;;;;;;;;;;;;;;;18.73;18.96;99585.63;5030970;28;20384;-74
2023/10/16 12:53:00;;;;;;;;;;;;;;;19.02;19.40;99588.00;5030120;28;19917;-75
2023/10/16 12:55:26;;;;;;;;;;;;;;;18.76;19.75;99601.06;5025881;28;19920;-76
2023/10/16 12:57:52;;;;;;;;;;;;;;;18.84;20.16;99591.44;5026840;28;19916;-77
2023/10/16 13:00:19;;;;;;;;;;;;;;;19.08;19.89;99595.75;5030642;28;19917;-74
2023/10/16 13:02:48;;;;;;;;;;;;;;;19.04;19.54;99588.41;5018776;28;20422;-74
2023/10/16 13:05:17;;;;;;;;;;;;;;;18.67;19.46;99587.22;5030069;28;19920;-72
2023/10/16 13:07:43;;;;;;;;;;;;;;;18.66;20.30;99591.25;5025373;28;19916;-73
2023/10/16 13:10:15;;;;;;;;;;;;;;;18.90;20.09;99594.75;5025960;28;20296;-74
2023/10/16 13:12:44;;;;;;;;;;;;;;;19.05;19.71;99588.03;5019939;28;20454;-75
2023/10/16 13:15:10;;;;;;;;;;;;;;;18.99;20.37;99577.41;5029255;28;19999;-73
2023/10/16 13:17:38;;;;;;;;;;;;;;;18.83;19.99;99586.16;5029349;28;19952;-79
2023/10/16 13:20:16;;;;;;;;;;;;;;;18.74;20.25;99597.81;5029929;28;19917;-73
2023/10/16 13:22:42;;;;;;;;;;;;;;;18.98;20.15;99589.94;5037596;28;19921;-76
2023/10/16 13:25:12;;;;;;;;;;;;;;;18.89;20.09;99595.94;5026903;28;20407;-75
2023/10/16 13:27:38;;;;;;;;;;;;;;;18.92;19.61;99586.66;5026993;28;19968;-72
2023/10/16 13:30:05;;;;;;;;;;;;;;;19.03;19.73;99584.78;5030962;28;20358;-73
2023/10/16 13:32:30;;;;;;;;;;;;;;;18.87;19.94;99592.66;5027047;28;19969;-74
2023/10/16 13:34:57;;;;;;;;;;;;;;;19.04;20.19;99596.91;5021642;28;19913;-76
2023/10/16 13:37:23;;;;;;;;;;;;;;;18.78;19.78;99599.47;5009963;28;19913;-75
2023/10/16 13:39:52;;;;;;;;;;;;;;;19.24;20.14;99593.88;5026914;28;19917;-75
2023/10/16 13:42:17;;;;;;;;;;;;;;;19.25;20.04;99587.81;5021283;28;20108;-80
2023/10/16 13:44:46;;;;;;;;;;;;;;;19.12;19.58;99595.78;5029685;28;19917;-72
2023/10/16 13:47:13;;;;;;;;;;;;;;;19.21;20.28;99589.78;5020227;28;19924;-72
2023/10/16 13:49:40;;;;;;;;;;;;;;;18.64;20.33;99593.63;5029456;28;19944;-74
2023/10/16 13:52:08;;;;;;;;;;;;;;;18.93;20.23;99597.59;5029041;28;19993;-74
2023/10/16 13:54:40;;;;;;;;;;;;;;;19.03;20.68;99596.13;5020534;28;19975;-73
2023/10/16 13:57:07;;;;;;;;;;;;;;;19.11;20.89;99594.16;5024625;28;19924;-74
2023/10/16 13:59:33;;;;;;;;;;;;;;;19.03;20.68;99600.94;5023046;28;19918;-73
2023/10/16 14:02:01;;;;;;;;;;;;;;;18.89;20.66;99608.06;5030921;28;19925;-72
2023/10/16 14:04:32;;;;;;;;;;;;;;;18.69;20.93;99598.13;5022297;28;19921;-74
2023/10/16 14:06:58;;;;;;;;;;;;;;;18.81;20.71;99603.53;5015608;28;19918;-74
2023/10/16 14:09:32;;;;;;;;;;;;;;;18.78;20.74;99601.47;5022303;28;19917;-74
2023/10/16 14:11:58;;;;;;;;;;;;;;;19.11;20.60;99602.66;5019118;28;20407;-74
2023/10/16 14:14:24;;;;;;;;;;;;;;;18.96;20.90;99595.19;5019426;28;19923;-74
2023/10/16 14:16:53;;;;;;;;;;;;;;;18.73;20.76;99602.63;5039749;28;19921;-73
2023/10/16 14:19:22;;;;;;;;;;;;;;;18.73;21.05;99596.19;5030704;28;19917;-72
2023/10/16 14:21:51;;;;;;;;;;;;;;;18.96;20.69;99598.03;5032965;28;19913;-72
2023/10/16 14:24:18;;;;;;;;;;;;;;;19.09;20.43;99605.06;5028944;28;20012;-72
2023/10/16 14:26:45;;;;;;;;;;;;;;;18.84;20.57;99593.44;5029353;28;20291;-72
2023/10/16 14:29:10;;;;;;;;;;;;;;;18.79;21.04;99598.28;5015766;28;19927;-72
2023/10/16 14:31:36;;;;;;;;;;;;;;;18.65;20.75;99601.75;5033505;28;20015;-71
2023/10/16 14:34:05;;;;;;;;;;;;;;;18.48;21.00;99605.19;5035381;28;19917;-72
2023/10/16 14:36:31;;;;;;;;;;;;;;;18.53;21.02;99607.66;5032693;28;19917;-75
2023/10/16 14:38:59;;;;;;;;;;;;;;;18.69;20.97;99603.78;5032635;28;19919;-73
2023/10/16 14:41:25;;;;;;;;;;;;;;;18.55;20.81;99604.47;5033823;28;19913;-73
2023/10/16 14:43:50;;;;;;;;;;;;;;;18.56;21.07;99604.06;5029069;28;20016;-74
2023/10/16 14:46:17;;;;;;;;;;;;;;;18.47;20.82;99606.41;5023311;28;19925;-74
2023/10/16 14:48:43;;;;;;;;;;;;;;;18.43;21.05;99608.34;5031178;28;20405;-78
2023/10/16 14:51:15;;;;;;;;;;;;;;;18.30;21.63;99608.59;5032696;28;20308;-78
2023/10/16 14:53:43;;;;;;;;;;;;;;;18.05;21.68;99609.09;5028773;28;19934;-72